This is the latest recevied weather packets stored in our database for station/object KB1WCR. If no packets are shown the sender has not sent any weather packets the latest 10 day(s).
| Time | Temp. | Humidity | Pressure | Rain* | Wind** | Luminosity | Snow |
|---|---|---|---|---|---|---|---|
| 1788142247 | 18.89° C | 79% | 1017.3 hPa | 0 mm | - | 0 W/m² | - |
| 1788141943 | 19.44° C | 76% | 1017.1 hPa | 0 mm | - | 0 W/m² | - |
| 1788141637 | 20° C | 75% | 1017.2 hPa | 0 mm | - | 0 W/m² | - |
| 1788141333 | 20° C | 75% | 1016.9 hPa | 0 mm | - | 0 W/m² | - |
| 1788141037 | 20° C | 78% | 1016.9 hPa | 0 mm | - | 0 W/m² | - |
| 1788140723 | 18.33° C | 90% | 1016.4 hPa | 0 mm | - | 0 W/m² | - |
| 1788140418 | 18.33° C | 91% | 1016.2 hPa | 0 mm | - | 0 W/m² | - |
| 1788140114 | 18.33° C | 91% | 1016.1 hPa | 0 mm | - | 0 W/m² | - |
| 1788139808 | 18.33° C | 91% | 1016 hPa | 0 mm | - | 0 W/m² | - |
| 1788139502 | 18.33° C | 91% | 1015.7 hPa | 0 mm | - | 0 W/m² | - |
| 1788139196 | 18.33° C | 91% | 1015.8 hPa | 0 mm | - | 0 W/m² | - |
| 1788138891 | 18.33° C | 90% | 1015.8 hPa | 0 mm | - | 0 W/m² | - |
| 1788138588 | 18.33° C | 90% | 1015.7 hPa | 0 mm | - | 0 W/m² | - |
| 1788138287 | 18.33° C | 90% | 1015.6 hPa | 0 mm | - | 0 W/m² | - |
| 1788137983 | 18.33° C | 90% | 1015.6 hPa | 0 mm | - | 0 W/m² | - |
| 1788137679 | 18.33° C | 89% | 1015.4 hPa | 0 mm | - | 0 W/m² | - |
| 1788137378 | 18.89° C | 87% | 1015.5 hPa | 0 mm | - | 0 W/m² | - |
| 1788137075 | 18.89° C | 86% | 1015.4 hPa | 0 mm | - | 0 W/m² | - |
| 1788136770 | 19.44° C | 86% | 1015.4 hPa | 0 mm | - | 0 W/m² | - |
| 1788136466 | 20° C | 84% | 1015.2 hPa | 0 mm | - | 0 W/m² | - |
| 1788136166 | 20° C | 82% | 1015.4 hPa | 0 mm | - | 0 W/m² | - |
| 1788135865 | 20° C | 82% | 1015.4 hPa | 0 mm | - | 0 W/m² | - |
| 1788135560 | 20° C | 82% | 1015.3 hPa | 0 mm | - | 0 W/m² | - |
| 1788135255 | 20° C | 82% | 1015.4 hPa | 0 mm | - | 0 W/m² | - |
| 1788134953 | 20.56° C | 82% | 1015.2 hPa | 0 mm | - | 0 W/m² | - |
* Rain latest hour (hover to see other rain measurements)
** Current wind speed in m/s (hover to see current wind gust speed)